createdAt,value
2022-10-29T00:01:14.044Z,100933.09
2022-10-29T00:05:17.644Z,100918.41
2022-10-29T00:09:19.615Z,100928.91
2022-10-29T00:13:22.002Z,100919.56
2022-10-29T00:17:23.919Z,100913.75
2022-10-29T00:21:26.948Z,100910.56
2022-10-29T00:25:28.990Z,100914.78
2022-10-29T00:29:30.767Z,100907.34
2022-10-29T00:33:33.043Z,100908.34
2022-10-29T00:37:35.897Z,100907.75
2022-10-29T00:41:37.724Z,100903.72
2022-10-29T00:45:45.054Z,100904.28
2022-10-29T00:50:15.661Z,100911.78
2022-10-29T00:54:18.746Z,100902.50
2022-10-29T00:58:21.880Z,100896.53
2022-10-29T01:02:24.529Z,100890.16
2022-10-29T01:06:29.005Z,100893.34
2022-10-29T01:10:44.898Z,100892.00
2022-10-29T01:15:02.148Z,100890.44
2022-10-29T01:19:41.693Z,100893.59
2022-10-29T01:24:09.938Z,100889.31
2022-10-29T01:32:35.870Z,100909.44
2022-10-29T01:37:16.461Z,100899.94
2022-10-29T01:41:28.119Z,100908.16
2022-10-29T01:45:46.663Z,100905.22
2022-10-29T01:49:53.880Z,100897.50
2022-10-29T01:53:58.007Z,100899.31
2022-10-29T01:57:59.867Z,100892.41
2022-10-29T02:02:07.187Z,100891.44
2022-10-29T02:06:27.280Z,100907.09
2022-10-29T02:10:40.207Z,100892.09
2022-10-29T02:14:53.934Z,100884.56
2022-10-29T02:18:58.084Z,100884.63
2022-10-29T02:23:00.627Z,100877.84
2022-10-29T02:27:02.303Z,100872.00
2022-10-29T02:31:04.599Z,100879.06
2022-10-29T02:35:07.076Z,100880.50
2022-10-29T02:39:09.705Z,100864.03
2022-10-29T02:43:12.082Z,100855.03
2022-10-29T02:47:13.903Z,100858.44
2022-10-29T02:51:16.737Z,100851.47
2022-10-29T02:55:18.870Z,100850.88
2022-10-29T02:59:20.502Z,100842.72
2022-10-29T03:03:22.493Z,100847.91
2022-10-29T03:07:24.212Z,100829.88
2022-10-29T03:11:26.010Z,100820.13
2022-10-29T03:15:28.360Z,100823.44
2022-10-29T03:19:30.420Z,100812.75
2022-10-29T03:23:32.049Z,100814.03
2022-10-29T03:27:40.990Z,100799.53
2022-10-29T03:31:42.547Z,100797.84
2022-10-29T03:35:44.458Z,100794.59
2022-10-29T03:39:46.206Z,100787.19
2022-10-29T03:43:48.065Z,100782.66
2022-10-29T03:47:49.915Z,100780.53
2022-10-29T03:51:51.876Z,100777.47
2022-10-29T03:55:55.606Z,100791.63
2022-10-29T03:59:57.629Z,100784.38
2022-10-29T04:03:59.379Z,100793.69
2022-10-29T04:08:01.276Z,100809.41
2022-10-29T04:12:03.875Z,100811.88
2022-10-29T04:16:06.093Z,100804.75
2022-10-29T04:20:19.006Z,100796.09
2022-10-29T04:28:52.273Z,100786.59
2022-10-29T04:32:58.903Z,100775.84
2022-10-29T04:37:01.230Z,100772.75
2022-10-29T04:41:04.040Z,100766.59
2022-10-29T04:45:07.740Z,100763.44
2022-10-29T04:49:09.852Z,100755.34
2022-10-29T04:53:12.272Z,100756.13
2022-10-29T04:57:14.118Z,100765.69
2022-10-29T05:01:15.921Z,100767.97
2022-10-29T05:05:20.220Z,100767.13
2022-10-29T05:09:21.868Z,100766.38
2022-10-29T05:13:23.741Z,100765.78
2022-10-29T05:17:25.655Z,100779.22
2022-10-29T05:21:27.558Z,100783.19
2022-10-29T05:25:30.565Z,100785.16
2022-10-29T05:29:32.595Z,100799.44
2022-10-29T05:33:34.285Z,100787.16
2022-10-29T05:37:36.109Z,100805.50
2022-10-29T05:41:37.794Z,100802.59
2022-10-29T05:45:40.070Z,100799.69
2022-10-29T05:49:42.273Z,100796.81
2022-10-29T05:53:44.164Z,100802.88
2022-10-29T05:57:45.794Z,100787.38
2022-10-29T06:01:47.777Z,100789.28
2022-10-29T06:05:50.612Z,100790.91
2022-10-29T06:09:52.404Z,100779.22
2022-10-29T06:13:57.194Z,100781.28
2022-10-29T06:17:59.188Z,100788.06
2022-10-29T06:22:00.927Z,100788.06
2022-10-29T06:26:03.501Z,100775.63
2022-10-29T06:30:06.128Z,100775.44
2022-10-29T06:34:07.955Z,100775.72
2022-10-29T06:38:12.410Z,100790.09
2022-10-29T06:42:14.612Z,100787.94
2022-10-29T06:46:16.316Z,100782.16
2022-10-29T06:50:18.174Z,100777.97
2022-10-29T06:54:19.985Z,100777.09
2022-10-29T06:58:21.880Z,100789.66
2022-10-29T07:02:24.066Z,100791.22
2022-10-29T07:06:26.238Z,100797.22
2022-10-29T07:10:32.667Z,100795.25
2022-10-29T07:14:34.536Z,100792.25
2022-10-29T07:18:36.274Z,100790.56
2022-10-29T07:22:38.061Z,100791.88
2022-10-29T07:26:40.072Z,100794.44
2022-10-29T07:30:43.051Z,100821.31
2022-10-29T07:34:44.701Z,100841.16
2022-10-29T07:38:47.054Z,100846.44
2022-10-29T07:42:52.580Z,100854.63
2022-10-29T07:46:54.492Z,100865.25
2022-10-29T07:50:59.094Z,100866.69
2022-10-29T07:55:02.734Z,100871.34
2022-10-29T07:59:04.469Z,100867.94
2022-10-29T08:03:07.020Z,100875.47
2022-10-29T08:07:08.768Z,100874.00
2022-10-29T08:11:10.591Z,100855.94
2022-10-29T08:15:12.307Z,100870.38
2022-10-29T08:19:15.116Z,100873.03
2022-10-29T08:23:16.785Z,100872.31
2022-10-29T08:27:18.600Z,100862.56
2022-10-29T08:31:20.420Z,100864.09
2022-10-29T08:35:22.566Z,100860.84
2022-10-29T08:39:24.285Z,100875.44
2022-10-29T08:43:40.111Z,100870.63
2022-10-29T08:48:09.089Z,100875.47
2022-10-29T08:52:19.888Z,100870.63
2022-10-29T08:56:28.765Z,100877.50
2022-10-29T09:00:34.107Z,100851.31
2022-10-29T09:04:38.382Z,100871.19
2022-10-29T09:08:58.494Z,100871.31
2022-10-29T09:13:22.599Z,100872.88
2022-10-29T09:17:43.191Z,100881.44
2022-10-29T09:22:03.042Z,100880.09
2022-10-29T09:26:11.319Z,100881.31
2022-10-29T09:30:17.819Z,100882.97
2022-10-29T09:34:31.681Z,100872.38
2022-10-29T09:38:42.230Z,100858.66
2022-10-29T09:42:47.364Z,100853.38
2022-10-29T09:47:33.684Z,100853.81
2022-10-29T09:51:57.480Z,100845.84
2022-10-29T09:55:59.241Z,100851.66
2022-10-29T10:00:06.463Z,100870.88
2022-10-29T10:04:27.806Z,100881.28
2022-10-29T10:08:31.027Z,100875.06
2022-10-29T10:12:38.737Z,100855.28
2022-10-29T10:16:40.984Z,100856.63
2022-10-29T10:20:45.709Z,100854.63
2022-10-29T10:24:48.260Z,100832.22
2022-10-29T10:29:10.959Z,100823.25
2022-10-29T10:33:25.237Z,100845.31
2022-10-29T10:37:33.381Z,100849.81
2022-10-29T10:41:35.510Z,100840.41
2022-10-29T10:45:40.174Z,100836.00
2022-10-29T10:49:42.063Z,100853.50
2022-10-29T10:53:44.092Z,100862.88
2022-10-29T10:57:55.920Z,100860.03
2022-10-29T11:02:00.661Z,100845.28
2022-10-29T11:06:11.768Z,100841.91
2022-10-29T11:10:17.640Z,100841.03
2022-10-29T11:14:30.436Z,100839.91
2022-10-29T11:18:38.010Z,100840.16
2022-10-29T11:22:53.225Z,100849.63
2022-10-29T11:27:04.781Z,100858.72
2022-10-29T11:31:20.426Z,100857.91
2022-10-29T11:35:43.390Z,100854.94
2022-10-29T11:39:51.318Z,100844.13
2022-10-29T11:43:53.043Z,100861.38
2022-10-29T11:48:38.336Z,100847.34
2022-10-29T11:52:50.067Z,100863.88
2022-10-29T11:57:03.072Z,100864.66
2022-10-29T12:01:16.846Z,100865.38
2022-10-29T12:05:42.316Z,100849.56
2022-10-29T12:10:03.444Z,100857.09
2022-10-29T12:14:37.647Z,100860.00
2022-10-29T12:19:17.991Z,100868.78
2022-10-29T12:23:54.459Z,100881.25
2022-10-29T12:28:18.979Z,100877.28
2022-10-29T12:32:50.912Z,100872.09
2022-10-29T12:37:15.271Z,100855.50
2022-10-29T12:41:35.912Z,100860.38
2022-10-29T12:46:21.680Z,100861.56
2022-10-29T12:50:39.740Z,100858.22
2022-10-29T12:54:44.859Z,100881.50
2022-10-29T12:58:52.829Z,100892.38
2022-10-29T13:02:56.179Z,100872.19
2022-10-29T13:06:58.228Z,100866.91
2022-10-29T13:11:00.329Z,100870.75
2022-10-29T13:15:08.747Z,100889.53
2022-10-29T13:19:19.354Z,100897.94
2022-10-29T13:23:21.995Z,100877.19
2022-10-29T13:27:23.608Z,100892.75
2022-10-29T13:31:25.419Z,100892.63
2022-10-29T13:35:27.503Z,100904.22
2022-10-29T13:39:29.300Z,100901.50
2022-10-29T13:43:32.693Z,100914.97
2022-10-29T13:47:35.765Z,100933.25
2022-10-29T13:52:00.562Z,100919.09
2022-10-29T13:56:02.914Z,100919.22
2022-10-29T14:00:08.239Z,100928.75
2022-10-29T14:04:25.394Z,100929.22
2022-10-29T14:08:50.744Z,100923.81
2022-10-29T14:13:00.828Z,100923.22
2022-10-29T14:17:14.082Z,100927.66
2022-10-29T14:21:29.338Z,100911.91
2022-10-29T14:25:36.261Z,100904.63
2022-10-29T14:29:39.434Z,100901.00
2022-10-29T14:33:43.471Z,100903.91
2022-10-29T14:37:48.616Z,100888.97
2022-10-29T14:41:50.792Z,100879.19
2022-10-29T14:45:55.757Z,100881.00
2022-10-29T14:49:58.798Z,100868.81
2022-10-29T14:54:02.651Z,100871.22
2022-10-29T14:58:11.481Z,100869.16
2022-10-29T15:06:35.820Z,100866.09
2022-10-29T15:10:52.497Z,100864.00
2022-10-29T15:14:54.645Z,100853.03
2022-10-29T15:18:58.685Z,100842.88
2022-10-29T15:23:01.254Z,100847.28
2022-10-29T15:27:04.678Z,100851.16
2022-10-29T15:31:07.165Z,100849.56
2022-10-29T15:35:10.491Z,100852.19
2022-10-29T15:39:21.571Z,100852.78
2022-10-29T15:43:29.558Z,100856.59
2022-10-29T15:47:31.291Z,100849.19
2022-10-29T15:51:33.302Z,100854.53
2022-10-29T15:55:37.652Z,100842.16
2022-10-29T15:59:40.175Z,100835.75
2022-10-29T16:03:43.077Z,100831.56
2022-10-29T16:07:47.900Z,100836.84
2022-10-29T16:11:50.800Z,100842.25
2022-10-29T16:15:52.869Z,100849.69
2022-10-29T16:19:54.515Z,100856.78
2022-10-29T16:23:56.308Z,100852.81
2022-10-29T16:27:58.533Z,100847.81
2022-10-29T16:32:00.719Z,100849.63
2022-10-29T16:36:02.444Z,100851.72
2022-10-29T16:40:04.965Z,100845.28
2022-10-29T16:44:06.720Z,100848.50
2022-10-29T16:48:08.949Z,100847.59
2022-10-29T16:52:10.849Z,100846.00
2022-10-29T16:56:12.601Z,100845.38
2022-10-29T17:00:14.885Z,100853.50
2022-10-29T17:04:16.973Z,100853.00
2022-10-29T17:08:19.043Z,100847.03
2022-10-29T17:12:20.822Z,100841.78
2022-10-29T17:16:22.728Z,100850.06
2022-10-29T17:20:24.594Z,100860.75
2022-10-29T17:24:27.195Z,100868.41
2022-10-29T17:28:29.202Z,100868.94
2022-10-29T17:32:32.708Z,100877.19
2022-10-29T17:36:36.926Z,100868.59
2022-10-29T17:40:39.021Z,100879.50
2022-10-29T17:44:40.791Z,100871.56
2022-10-29T17:48:42.533Z,100873.16
2022-10-29T17:52:44.858Z,100875.47
2022-10-29T17:56:47.200Z,100865.34
2022-10-29T18:00:49.113Z,100862.63
2022-10-29T18:04:51.089Z,100861.16
2022-10-29T18:08:53.049Z,100857.47
2022-10-29T18:12:54.738Z,100870.28
2022-10-29T18:16:56.585Z,100876.41
2022-10-29T18:20:58.260Z,100883.91
2022-10-29T18:25:00.057Z,100880.53
2022-10-29T18:29:06.160Z,100872.06
2022-10-29T18:33:08.320Z,100879.59
2022-10-29T18:37:10.253Z,100886.44
2022-10-29T18:41:12.315Z,100883.28
2022-10-29T18:45:14.066Z,100882.56
2022-10-29T18:49:16.172Z,100883.19
2022-10-29T18:53:18.314Z,100883.19
2022-10-29T18:57:20.165Z,100892.38
2022-10-29T19:01:25.849Z,100885.56
2022-10-29T19:05:28.135Z,100886.81
2022-10-29T19:09:30.185Z,100887.69
2022-10-29T19:13:32.442Z,100891.88
2022-10-29T19:17:34.248Z,100900.09
2022-10-29T19:21:37.810Z,100903.38
2022-10-29T19:25:41.037Z,100907.72
2022-10-29T19:29:43.018Z,100916.03
2022-10-29T19:33:49.650Z,100911.41
2022-10-29T19:37:51.489Z,100899.59
2022-10-29T19:41:53.247Z,100909.13
2022-10-29T19:45:55.617Z,100911.16
2022-10-29T19:49:57.319Z,100905.69
2022-10-29T19:54:01.933Z,100902.06
2022-10-29T19:58:03.808Z,100908.00
2022-10-29T20:02:05.689Z,100904.31
2022-10-29T20:06:09.338Z,100895.72
2022-10-29T20:10:11.226Z,100899.25
2022-10-29T20:14:12.945Z,100899.47
2022-10-29T20:18:14.965Z,100906.19
2022-10-29T20:22:16.664Z,100894.94
2022-10-29T20:26:18.581Z,100903.59
2022-10-29T20:30:20.919Z,100912.63
2022-10-29T20:34:22.803Z,100915.53
2022-10-29T20:38:24.480Z,100908.25
2022-10-29T20:42:26.524Z,100909.44
2022-10-29T20:46:28.883Z,100907.56
2022-10-29T20:50:30.714Z,100925.66
2022-10-29T20:54:32.567Z,100911.53
2022-10-29T20:58:36.669Z,100911.59
2022-10-29T21:02:38.412Z,100907.28
2022-10-29T21:06:40.591Z,100907.47
2022-10-29T21:10:42.288Z,100925.72
2022-10-29T21:14:44.048Z,100922.88
2022-10-29T21:18:48.177Z,100923.47
2022-10-29T21:22:50.516Z,100904.25
2022-10-29T21:26:52.208Z,100907.06
2022-10-29T21:30:54.226Z,100917.06
2022-10-29T21:34:55.885Z,100907.63
2022-10-29T21:38:57.724Z,100909.16
2022-10-29T21:43:00.002Z,100900.97
2022-10-29T21:47:02.101Z,100917.97
2022-10-29T21:51:10.706Z,100918.59
2022-10-29T21:55:12.717Z,100916.19
2022-10-29T21:59:14.382Z,100914.84
2022-10-29T22:03:16.185Z,100923.88
2022-10-29T22:07:18.082Z,100928.56
2022-10-29T22:11:19.929Z,100936.38
2022-10-29T22:15:21.569Z,100915.34
2022-10-29T22:19:23.741Z,100920.69
2022-10-29T22:23:25.561Z,100933.16
2022-10-29T22:27:27.383Z,100933.59
2022-10-29T22:31:29.129Z,100926.47
2022-10-29T22:35:32.363Z,100919.91
2022-10-29T22:39:34.068Z,100922.59
2022-10-29T22:43:36.321Z,100926.91
2022-10-29T22:47:38.007Z,100922.97
2022-10-29T22:51:40.075Z,100925.38
2022-10-29T22:55:41.799Z,100912.19
2022-10-29T22:59:43.941Z,100906.94
2022-10-29T23:03:46.525Z,100918.78
2022-10-29T23:07:48.541Z,100928.19
2022-10-29T23:11:50.187Z,100911.59
2022-10-29T23:15:53.182Z,100918.38
2022-10-29T23:19:56.268Z,100935.78
2022-10-29T23:23:58.215Z,100941.41
2022-10-29T23:28:00.073Z,100930.28
2022-10-29T23:32:02.025Z,100933.50
2022-10-29T23:36:05.644Z,100947.78
2022-10-29T23:40:08.451Z,100935.53
2022-10-29T23:44:10.316Z,100939.28
2022-10-29T23:48:12.249Z,100933.69
2022-10-29T23:52:15.311Z,100927.22
2022-10-29T23:56:17.344Z,100928.06
